Welsh, Louisiana
Current Conditions -  °F | °C
As of 3:15 PM on Friday 24 Oct 2014 (Local Time) from K3R7 Reporting Station
Clear Clear  
Wind Chill: 75°   Ceiling: Unl
Heat Index: 75°   Visibility: 10mi
Dew Point: 47°   Wind: 8mph
Humidity: 37%   Direction: 20°NNE
Pressure: 30.07"   Gusts: NA
Location:  30.24°N, 92.82°W
Report Text: K3R7 242015Z AUTO 02007KT 10SM CLR 24/08 A3007 RMK AO2 T02370081
Loading
Personal Weather Stations






























Interactive Weather Map
Tropical Storm Tracking
New forecast layout! Learn more

10-Day Weather Forecast

Advertisements
Track Severe Weather on mobile